Impacts METAR Board
IDs:

KILE - Killeen/Skylark Fld, TX, US

Updated at: 2300 UTC 29 May 2020
Potential Impact None Slight Moderate High
Time 29/11Z 29/12Z 29/13Z 29/14Z 29/15Z 29/16Z 29/17Z 29/18Z 29/19Z 29/20Z 29/21Z 29/22Z 29/23Z
Temp66 66 69 71 75 77 79 82 84 85 86 86 85
Dewpt64 64 65 65 65 65 65 62 60 58 57 58 58
Altim30.09 30.11 30.14 30.15 30.15 30.14 30.15 30.14 30.14 30.14 30.14 30.11 30.10
VIS10 10 10 10 10 10 10 10 10 10 10 10 10
CIG-- -- -- -- -- -- -- -- -- -- -- -- --
CoverCLRCLRCLRCLRFEWCLRFEWCLRCLRCLRCLRCLRCLR
FltCatVFRVFRVFRVFRVFRVFRVFRVFRVFRVFRVFRVFRVFR
WX--------------------------
WDir32035010203020360203050603030
WSpd6 5 6 13 11 12 10 12 15 16 13 14 10
WGst-- -- -- -- 17 -- 15 20 19 -- 19 -- --
Raw hourly METARs
KILE 291056Z AUTO 32006KT 10SM CLR 19/18 A3009 RMK AO2 SLP180 T01890178
KILE 291156Z AUTO 35005KT 10SM CLR 19/18 A3011 RMK AO2 SLP185 70013 T01890178 10206 20189 51014
KILE 291256Z AUTO 01006KT 10SM CLR 21/18 A3014 RMK AO2 SLP196 T02060183
KILE 291356Z AUTO 02013KT 10SM CLR 22/18 A3015 RMK AO2 SLP200 T02170183
KILE 291456Z AUTO 03011G17KT 10SM FEW023 24/18 A3015 RMK AO2 SLP199 T02390183 50015
KILE 291556Z AUTO 02012KT 10SM CLR 25/18 A3014 RMK AO2 SLP195 T02500183
KILE 291656Z AUTO 36010G15KT 10SM FEW032 26/18 A3015 RMK AO2 SLP197 T02610183
KILE 291756Z AUTO 02012G20KT 10SM CLR 28/17 A3014 RMK AO2 SLP194 T02780167 10278 20189 56004
KILE 291856Z AUTO 03015G19KT 10SM CLR 29/16 A3014 RMK AO2 SLP194 T02890156
KILE 291956Z AUTO 05016KT 10SM CLR 29/14 A3014 RMK AO2 SLP193 T02940144
KILE 292056Z AUTO 06013G19KT 10SM CLR 30/14 A3014 RMK AO2 SLP192 T03000139 58001
KILE 292156Z AUTO 03014KT 10SM CLR 30/14 A3011 RMK AO2 SLP185 T03000144
KILE 292256Z AUTO 03010KT 10SM CLR 29/14 A3010 RMK AO2 SLP181 T02940144